createdAt,value
2022-10-09T00:01:38.339Z,7.40
2022-10-09T00:04:05.941Z,7.80
2022-10-09T00:06:33.981Z,6.80
2022-10-09T00:09:04.108Z,7.60
2022-10-09T00:11:32.035Z,7.97
2022-10-09T00:13:59.094Z,8.60
2022-10-09T00:16:26.041Z,8.17
2022-10-09T00:18:53.097Z,8.00
2022-10-09T00:21:25.516Z,7.53
2022-10-09T00:23:53.678Z,7.83
2022-10-09T00:26:20.715Z,7.50
2022-10-09T00:28:47.732Z,7.83
2022-10-09T00:31:14.802Z,8.20
2022-10-09T00:33:41.743Z,7.27
2022-10-09T00:36:10.786Z,7.23
2022-10-09T00:38:37.781Z,7.87
2022-10-09T00:41:04.839Z,7.73
2022-10-09T00:43:43.385Z,7.60
2022-10-09T00:46:34.670Z,7.23
2022-10-09T00:49:30.991Z,7.10
2022-10-09T00:52:00.123Z,8.00
2022-10-09T00:54:28.349Z,7.70
2022-10-09T00:56:55.206Z,7.30
2022-10-09T00:59:22.645Z,8.13
2022-10-09T01:01:49.549Z,7.97
2022-10-09T01:04:16.406Z,7.70
2022-10-09T01:06:54.998Z,7.50
2022-10-09T01:09:28.967Z,7.47
2022-10-09T01:12:01.075Z,7.43
2022-10-09T01:14:28.794Z,8.43
2022-10-09T01:17:01.466Z,7.90
2022-10-09T01:19:49.669Z,7.20
2022-10-09T01:22:30.581Z,8.37
2022-10-09T01:25:07.961Z,6.67
2022-10-09T01:27:35.466Z,7.53
2022-10-09T01:30:07.537Z,6.80
2022-10-09T01:32:37.457Z,7.73
2022-10-09T01:35:05.827Z,7.77
2022-10-09T01:37:32.653Z,7.63
2022-10-09T01:40:00.448Z,7.57
2022-10-09T01:42:27.815Z,7.73
2022-10-09T01:44:55.613Z,8.33
2022-10-09T01:47:22.441Z,8.07
2022-10-09T01:50:08.226Z,8.20
2022-10-09T01:52:47.190Z,7.30
2022-10-09T01:55:26.947Z,7.43
2022-10-09T01:58:10.513Z,7.73
2022-10-09T02:00:39.836Z,7.13
2022-10-09T02:03:07.947Z,7.10
2022-10-09T02:05:34.727Z,7.50
2022-10-09T02:08:01.533Z,7.10
2022-10-09T02:10:28.343Z,7.80
2022-10-09T02:12:59.231Z,7.87
2022-10-09T02:15:48.268Z,8.20
2022-10-09T02:18:16.347Z,7.50
2022-10-09T02:20:46.026Z,8.30
2022-10-09T02:23:12.868Z,6.93
2022-10-09T02:25:39.632Z,8.13
2022-10-09T02:28:06.446Z,7.70
2022-10-09T02:30:58.647Z,7.80
2022-10-09T02:33:32.309Z,7.60
2022-10-09T02:35:59.114Z,7.03
2022-10-09T02:38:25.878Z,7.73
2022-10-09T02:40:52.679Z,7.53
2022-10-09T02:43:19.493Z,7.33
2022-10-09T02:45:46.278Z,8.03
2022-10-09T02:48:13.174Z,8.13
2022-10-09T02:50:40.030Z,7.27
2022-10-09T02:53:06.780Z,8.10
2022-10-09T02:55:33.535Z,7.30
2022-10-09T02:58:01.444Z,7.03
2022-10-09T03:00:28.398Z,7.13
2022-10-09T03:02:55.418Z,7.67
2022-10-09T03:05:22.330Z,7.40
2022-10-09T03:07:51.853Z,8.70
2022-10-09T03:10:19.659Z,8.20
2022-10-09T03:12:46.841Z,8.20
2022-10-09T03:15:14.060Z,7.97
2022-10-09T03:17:40.898Z,8.00
2022-10-09T03:20:08.135Z,7.47
2022-10-09T03:22:34.944Z,8.27
2022-10-09T03:25:01.716Z,7.80
2022-10-09T03:27:28.490Z,8.10
2022-10-09T03:29:55.294Z,7.33
2022-10-09T03:32:22.172Z,6.87
2022-10-09T03:34:49.014Z,6.60
2022-10-09T03:37:15.783Z,6.67
2022-10-09T03:39:42.542Z,6.53
2022-10-09T03:42:09.447Z,7.30
2022-10-09T03:44:36.312Z,6.50
2022-10-09T03:47:03.215Z,6.70
2022-10-09T03:49:30.134Z,7.80
2022-10-09T03:51:56.967Z,7.33
2022-10-09T03:54:23.805Z,6.73
2022-10-09T03:56:50.626Z,6.73
2022-10-09T03:59:17.591Z,7.13
2022-10-09T04:01:44.431Z,6.80
2022-10-09T04:04:11.258Z,6.67
2022-10-09T04:06:38.141Z,6.73
2022-10-09T04:09:04.981Z,6.33
2022-10-09T04:11:31.775Z,6.63
2022-10-09T04:13:58.574Z,7.33
2022-10-09T04:16:25.430Z,7.20
2022-10-09T04:18:52.314Z,6.77
2022-10-09T04:21:19.214Z,6.27
2022-10-09T04:23:45.992Z,6.93
2022-10-09T04:26:13.153Z,6.57
2022-10-09T04:28:41.083Z,6.43
2022-10-09T04:31:08.157Z,6.60
2022-10-09T04:33:34.959Z,7.23
2022-10-09T04:36:01.766Z,6.37
2022-10-09T04:38:28.587Z,6.33
2022-10-09T04:41:03.166Z,5.93
2022-10-09T04:43:30.263Z,6.47
2022-10-09T04:45:57.183Z,5.40
2022-10-09T04:48:24.280Z,5.73
2022-10-09T04:50:51.174Z,6.33
2022-10-09T04:53:18.009Z,6.37
2022-10-09T04:55:44.865Z,6.60
2022-10-09T04:58:12.110Z,5.83
2022-10-09T05:00:45.974Z,6.07
2022-10-09T05:03:13.335Z,5.77
2022-10-09T05:05:40.172Z,4.93
2022-10-09T05:08:06.997Z,6.37
2022-10-09T05:10:33.838Z,5.47
2022-10-09T05:13:00.616Z,5.97
2022-10-09T05:15:27.526Z,6.03
2022-10-09T05:17:54.350Z,5.33
2022-10-09T05:20:21.174Z,5.93
2022-10-09T05:22:48.316Z,5.67
2022-10-09T05:25:15.476Z,5.30
2022-10-09T05:27:42.253Z,6.00
2022-10-09T05:30:09.722Z,5.27
2022-10-09T05:32:36.713Z,6.53
2022-10-09T05:35:04.423Z,5.50
2022-10-09T05:37:31.228Z,5.33
2022-10-09T05:39:58.037Z,5.43
2022-10-09T05:42:24.799Z,4.63
2022-10-09T05:44:51.558Z,5.00
2022-10-09T05:47:19.802Z,5.00
2022-10-09T05:49:46.897Z,5.10
2022-10-09T05:52:13.720Z,4.90
2022-10-09T05:54:42.053Z,5.60
2022-10-09T05:57:09.396Z,5.63
2022-10-09T05:59:36.155Z,5.73
2022-10-09T06:02:03.151Z,5.57
2022-10-09T06:04:30.107Z,5.13
2022-10-09T06:06:56.863Z,5.67
2022-10-09T06:09:24.332Z,5.23
2022-10-09T06:11:52.718Z,5.77
2022-10-09T06:14:22.152Z,5.00
2022-10-09T06:16:49.753Z,4.97
2022-10-09T06:19:17.531Z,8.37
2022-10-09T06:21:45.075Z,6.40
2022-10-09T06:24:24.468Z,6.77
2022-10-09T06:26:54.955Z,7.13
2022-10-09T06:29:21.876Z,5.70
2022-10-09T06:31:48.700Z,7.10
2022-10-09T06:34:15.546Z,5.73
2022-10-09T06:36:42.349Z,5.07
2022-10-09T06:39:10.058Z,5.47
2022-10-09T06:41:37.967Z,5.47
2022-10-09T06:44:06.447Z,5.57
2022-10-09T06:46:35.471Z,5.07
2022-10-09T06:49:02.716Z,5.53
2022-10-09T06:51:29.885Z,5.30
2022-10-09T06:53:57.996Z,5.33
2022-10-09T06:56:26.456Z,4.93
2022-10-09T06:58:54.534Z,6.10
2022-10-09T07:01:32.530Z,5.87
2022-10-09T07:04:07.582Z,5.53
2022-10-09T07:06:37.023Z,5.50
2022-10-09T07:09:06.508Z,6.03
2022-10-09T07:11:37.683Z,4.37
2022-10-09T07:14:05.819Z,4.93
2022-10-09T07:16:34.156Z,5.07
2022-10-09T07:19:03.932Z,5.87
2022-10-09T07:21:30.711Z,5.90
2022-10-09T07:23:59.973Z,5.87
2022-10-09T07:26:27.431Z,5.80
2022-10-09T07:28:54.258Z,4.77
2022-10-09T07:31:21.299Z,5.87
2022-10-09T07:33:49.064Z,5.80
2022-10-09T07:36:15.958Z,5.87
2022-10-09T07:38:42.898Z,5.80
2022-10-09T07:41:12.142Z,5.43
2022-10-09T07:43:40.124Z,5.20
2022-10-09T07:46:08.748Z,5.67
2022-10-09T07:48:35.562Z,5.23
2022-10-09T07:51:16.416Z,5.17
2022-10-09T07:53:43.271Z,6.80
2022-10-09T07:56:24.460Z,5.40
2022-10-09T07:58:52.131Z,6.03
2022-10-09T08:01:20.463Z,6.00
2022-10-09T08:03:47.759Z,5.47
2022-10-09T08:06:14.647Z,6.50
2022-10-09T08:08:41.518Z,6.03
2022-10-09T08:11:13.022Z,5.53
2022-10-09T08:13:39.910Z,5.70
2022-10-09T08:16:07.251Z,4.97
2022-10-09T08:18:34.231Z,5.20
2022-10-09T08:21:02.213Z,5.53
2022-10-09T08:23:29.114Z,5.57
2022-10-09T08:25:56.041Z,5.60
2022-10-09T08:28:23.051Z,5.10
2022-10-09T08:30:50.010Z,6.07
2022-10-09T08:33:20.343Z,5.07
2022-10-09T08:35:47.485Z,4.93
2022-10-09T08:38:30.945Z,4.27
2022-10-09T08:41:29.398Z,5.77
2022-10-09T08:44:16.691Z,5.23
2022-10-09T08:46:48.007Z,5.47
2022-10-09T08:49:21.523Z,5.00
2022-10-09T08:51:48.438Z,5.13
2022-10-09T08:54:22.352Z,4.87
2022-10-09T08:56:49.151Z,4.87
2022-10-09T08:59:15.918Z,4.70
2022-10-09T09:01:48.319Z,5.87
2022-10-09T09:04:33.693Z,5.57
2022-10-09T09:07:03.454Z,4.80
2022-10-09T09:09:55.287Z,4.73
2022-10-09T09:12:43.613Z,4.43
2022-10-09T09:15:23.126Z,4.77
2022-10-09T09:17:55.174Z,5.30
2022-10-09T09:20:37.666Z,5.80
2022-10-09T09:23:05.621Z,4.30
2022-10-09T09:25:34.938Z,4.43
2022-10-09T09:28:31.430Z,4.67
2022-10-09T09:31:06.852Z,4.30
2022-10-09T09:33:53.709Z,4.10
2022-10-09T09:36:31.175Z,3.28
2022-10-09T09:41:45.963Z,3.53
2022-10-09T09:44:13.819Z,3.55
2022-10-09T09:46:40.780Z,3.67
2022-10-09T09:49:20.627Z,3.85
2022-10-09T09:51:47.671Z,3.75
2022-10-09T09:54:22.847Z,3.13
2022-10-09T09:59:38.139Z,3.15
2022-10-09T10:02:12.812Z,3.13
2022-10-09T10:04:52.511Z,3.35
2022-10-09T10:07:33.312Z,3.53
2022-10-09T10:10:28.841Z,3.30
2022-10-09T10:12:57.015Z,3.67
2022-10-09T10:15:26.981Z,3.70
2022-10-09T10:18:00.930Z,2.75
2022-10-09T10:20:28.582Z,4.30
2022-10-09T10:22:56.449Z,2.85
2022-10-09T10:25:26.710Z,3.58
2022-10-09T10:27:57.946Z,3.30
2022-10-09T10:30:24.743Z,3.10
2022-10-09T10:33:04.221Z,3.03
2022-10-09T10:35:38.606Z,3.35
2022-10-09T10:38:18.626Z,3.22
2022-10-09T10:41:13.458Z,3.53
2022-10-09T10:44:00.527Z,3.55
2022-10-09T10:46:49.060Z,3.45
2022-10-09T10:49:20.830Z,3.92
2022-10-09T10:52:06.588Z,3.70
2022-10-09T10:54:39.824Z,3.13
2022-10-09T10:57:10.913Z,3.10
2022-10-09T11:00:07.406Z,3.03
2022-10-09T11:03:02.886Z,2.40
2022-10-09T11:05:53.762Z,3.00
2022-10-09T11:08:34.035Z,2.95
2022-10-09T11:11:21.613Z,2.58
2022-10-09T11:13:51.374Z,2.50
2022-10-09T11:16:39.867Z,2.33
2022-10-09T11:19:18.899Z,1.90
2022-10-09T11:22:03.795Z,2.50
2022-10-09T11:24:59.714Z,2.35
2022-10-09T11:27:57.771Z,2.63
2022-10-09T11:30:26.713Z,2.63
2022-10-09T11:33:12.653Z,2.63
2022-10-09T11:35:55.648Z,2.10
2022-10-09T11:38:35.530Z,2.42
2022-10-09T11:41:05.216Z,2.05
2022-10-09T11:43:40.906Z,2.33
2022-10-09T11:46:24.116Z,2.22
2022-10-09T11:49:21.063Z,2.63
2022-10-09T11:52:24.475Z,2.03
2022-10-09T11:54:51.298Z,1.98
2022-10-09T11:57:29.371Z,2.25
2022-10-09T12:00:09.558Z,2.03
2022-10-09T12:02:36.893Z,2.40
2022-10-09T12:05:17.401Z,2.13
2022-10-09T12:07:44.156Z,2.13
2022-10-09T12:10:31.531Z,2.60
2022-10-09T12:13:03.628Z,2.05
2022-10-09T12:15:56.199Z,1.60
2022-10-09T12:18:44.328Z,2.17
2022-10-09T12:21:38.596Z,2.30
2022-10-09T12:24:06.637Z,2.00
2022-10-09T12:26:33.830Z,1.90
2022-10-09T12:29:01.617Z,1.80
2022-10-09T12:31:32.277Z,2.08
2022-10-09T12:34:14.122Z,1.90
2022-10-09T12:36:40.976Z,2.53
2022-10-09T12:39:23.671Z,2.42
2022-10-09T12:41:55.770Z,2.55
2022-10-09T12:44:26.933Z,2.50
2022-10-09T12:46:53.689Z,1.95
2022-10-09T12:49:21.638Z,2.30
2022-10-09T12:51:56.738Z,1.85
2022-10-09T12:54:25.201Z,1.92
2022-10-09T12:56:56.443Z,2.70
2022-10-09T12:59:23.479Z,2.65
2022-10-09T13:01:50.775Z,2.30
2022-10-09T13:04:33.603Z,1.95
2022-10-09T13:07:20.670Z,2.30
2022-10-09T13:09:47.904Z,2.72
2022-10-09T13:12:17.833Z,2.28
2022-10-09T13:14:55.466Z,2.20
2022-10-09T13:17:40.998Z,2.35
2022-10-09T13:20:13.567Z,2.20
2022-10-09T13:22:40.462Z,2.30
2022-10-09T13:25:07.536Z,2.60
2022-10-09T13:27:37.560Z,2.33
2022-10-09T13:30:05.617Z,2.10
2022-10-09T13:32:32.472Z,2.92
2022-10-09T13:34:59.243Z,2.60
2022-10-09T13:37:26.604Z,2.30
2022-10-09T13:39:56.622Z,3.15
2022-10-09T13:42:25.313Z,2.25
2022-10-09T13:44:52.171Z,2.60
2022-10-09T13:47:24.044Z,2.35
2022-10-09T13:49:51.313Z,2.75
2022-10-09T13:52:18.098Z,2.90
2022-10-09T13:54:45.367Z,2.33
2022-10-09T13:57:12.187Z,2.88
2022-10-09T13:59:39.055Z,2.10
2022-10-09T14:02:05.866Z,2.50
2022-10-09T14:04:32.641Z,2.70
2022-10-09T14:06:59.478Z,3.42
2022-10-09T14:09:26.386Z,2.92
2022-10-09T14:11:53.175Z,2.67
2022-10-09T14:14:22.280Z,2.80
2022-10-09T14:16:50.891Z,2.53
2022-10-09T14:19:17.926Z,2.40
2022-10-09T14:21:46.842Z,3.33
2022-10-09T14:24:14.511Z,2.70
2022-10-09T14:26:41.396Z,2.60
2022-10-09T14:29:09.115Z,2.90
2022-10-09T14:31:35.943Z,2.60
2022-10-09T14:34:02.823Z,2.70
2022-10-09T14:36:29.859Z,2.80
2022-10-09T14:38:56.680Z,2.92
2022-10-09T14:41:23.529Z,2.53
2022-10-09T14:43:56.465Z,2.38
2022-10-09T14:46:23.567Z,2.75
2022-10-09T14:48:50.553Z,2.90
2022-10-09T14:51:19.094Z,2.55
2022-10-09T14:53:46.267Z,2.53
2022-10-09T14:56:18.031Z,2.05
2022-10-09T14:58:44.965Z,2.40
2022-10-09T15:01:16.271Z,2.10
2022-10-09T15:03:43.326Z,2.20
2022-10-09T15:06:10.906Z,1.83
2022-10-09T15:08:39.044Z,2.22
2022-10-09T15:11:06.076Z,2.40
2022-10-09T15:13:35.064Z,2.75
2022-10-09T15:16:05.880Z,2.40
2022-10-09T15:18:32.686Z,2.65
2022-10-09T15:20:59.883Z,2.40
2022-10-09T15:23:27.521Z,2.50
2022-10-09T15:25:56.726Z,2.00
2022-10-09T15:28:23.697Z,2.20
2022-10-09T15:30:54.448Z,2.63
2022-10-09T15:33:22.583Z,2.63
2022-10-09T15:35:50.020Z,2.67
2022-10-09T15:38:18.633Z,2.00
2022-10-09T15:40:50.000Z,2.47
2022-10-09T15:43:19.799Z,2.15
2022-10-09T15:45:46.914Z,2.13
2022-10-09T15:48:24.517Z,2.40
2022-10-09T15:50:53.622Z,2.10
2022-10-09T15:53:21.889Z,2.47
2022-10-09T15:55:49.960Z,2.15
2022-10-09T15:58:17.988Z,2.22
2022-10-09T16:00:49.107Z,2.28
2022-10-09T16:03:16.588Z,2.05
2022-10-09T16:05:45.478Z,2.30
2022-10-09T16:08:12.561Z,2.15
2022-10-09T16:10:48.836Z,2.30
2022-10-09T16:13:16.188Z,1.90
2022-10-09T16:15:43.526Z,1.95
2022-10-09T16:18:10.804Z,1.80
2022-10-09T16:20:38.274Z,2.33
2022-10-09T16:23:05.290Z,2.08
2022-10-09T16:25:32.267Z,2.08
2022-10-09T16:27:59.074Z,2.28
2022-10-09T16:30:26.227Z,2.17
2022-10-09T16:32:53.247Z,2.25
2022-10-09T16:35:21.098Z,2.67
2022-10-09T16:37:47.842Z,2.67
2022-10-09T16:40:14.660Z,2.45
2022-10-09T16:42:41.431Z,2.30
2022-10-09T16:45:09.144Z,3.50
2022-10-09T16:47:35.911Z,2.28
2022-10-09T16:50:02.727Z,2.42
2022-10-09T16:52:29.632Z,3.97
2022-10-09T16:55:00.151Z,3.13
2022-10-09T16:57:27.257Z,3.22
2022-10-09T16:59:54.066Z,2.83
2022-10-09T17:02:20.856Z,3.65
2022-10-09T17:04:47.774Z,3.65
2022-10-09T17:07:14.576Z,4.18
2022-10-09T17:09:41.459Z,4.13
2022-10-09T17:12:09.752Z,4.60
2022-10-09T17:14:37.421Z,4.22
2022-10-09T17:17:05.228Z,4.53
2022-10-09T17:19:32.522Z,4.03
2022-10-09T17:22:00.192Z,4.07
2022-10-09T17:24:26.955Z,4.70
2022-10-09T17:26:55.144Z,5.75
2022-10-09T17:29:22.152Z,5.20
2022-10-09T17:31:49.341Z,5.23
2022-10-09T17:34:16.219Z,5.13
2022-10-09T17:36:43.428Z,5.05
2022-10-09T17:39:15.117Z,4.80
2022-10-09T17:41:43.611Z,4.97
2022-10-09T17:44:10.469Z,4.90
2022-10-09T17:46:37.262Z,5.30
2022-10-09T17:49:04.106Z,6.23
2022-10-09T17:51:32.769Z,5.23
2022-10-09T17:54:01.371Z,5.07
2022-10-09T17:56:29.171Z,5.80
2022-10-09T17:58:56.057Z,4.67
2022-10-09T18:01:23.113Z,5.07
2022-10-09T18:03:50.031Z,4.63
2022-10-09T18:06:18.060Z,4.97
2022-10-09T18:08:45.053Z,4.40
2022-10-09T18:11:14.764Z,4.60
2022-10-09T18:13:42.530Z,4.47
2022-10-09T18:16:11.914Z,5.63
2022-10-09T18:18:38.795Z,4.43
2022-10-09T18:21:10.221Z,3.90
2022-10-09T18:23:37.242Z,3.90
2022-10-09T18:26:11.527Z,3.50
2022-10-09T18:28:38.443Z,3.50
2022-10-09T18:31:08.597Z,3.43
2022-10-09T18:33:35.685Z,3.50
2022-10-09T18:36:07.307Z,2.87
2022-10-09T18:38:34.396Z,3.20
2022-10-09T18:41:01.982Z,3.17
2022-10-09T18:43:29.042Z,3.70
2022-10-09T18:45:55.927Z,3.73
2022-10-09T18:48:22.820Z,3.40
2022-10-09T18:50:49.594Z,3.67
2022-10-09T18:53:16.471Z,3.50
2022-10-09T18:55:43.582Z,3.73
2022-10-09T18:58:10.406Z,3.67
2022-10-09T19:00:38.715Z,3.53
2022-10-09T19:03:05.620Z,3.80
2022-10-09T19:05:32.384Z,4.10
2022-10-09T19:07:59.161Z,4.50
2022-10-09T19:10:26.140Z,4.20
2022-10-09T19:12:54.369Z,4.23
2022-10-09T19:15:21.494Z,5.40
2022-10-09T19:17:48.681Z,4.93
2022-10-09T19:20:15.695Z,4.70
2022-10-09T19:22:42.804Z,5.53
2022-10-09T19:25:09.876Z,4.67
2022-10-09T19:27:36.779Z,5.90
2022-10-09T19:30:04.474Z,4.77
2022-10-09T19:32:31.615Z,5.50
2022-10-09T19:34:58.575Z,6.30
2022-10-09T19:37:28.895Z,5.63
2022-10-09T19:39:56.887Z,5.80
2022-10-09T19:42:24.920Z,5.90
2022-10-09T19:44:51.751Z,5.47
2022-10-09T19:47:19.180Z,6.07
2022-10-09T19:49:46.054Z,5.83
2022-10-09T19:52:12.802Z,6.57
2022-10-09T19:54:40.278Z,6.27
2022-10-09T19:57:07.074Z,6.60
2022-10-09T19:59:33.851Z,6.97
2022-10-09T20:02:00.754Z,6.47
2022-10-09T20:04:27.787Z,6.87
2022-10-09T20:06:54.585Z,7.20
2022-10-09T20:09:21.384Z,6.63
2022-10-09T20:11:48.456Z,7.93
2022-10-09T20:14:15.385Z,6.33
2022-10-09T20:16:42.186Z,6.63
2022-10-09T20:19:09.077Z,6.70
2022-10-09T20:21:35.931Z,7.10
2022-10-09T20:24:02.822Z,7.17
2022-10-09T20:26:31.539Z,6.03
2022-10-09T20:28:58.514Z,6.87
2022-10-09T20:31:26.217Z,8.27
2022-10-09T20:33:53.432Z,7.90
2022-10-09T20:36:26.218Z,7.37
2022-10-09T20:38:55.796Z,7.17
2022-10-09T20:41:22.661Z,7.87
2022-10-09T20:43:53.407Z,7.43
2022-10-09T20:46:21.336Z,7.97
2022-10-09T20:48:48.601Z,7.40
2022-10-09T20:51:15.740Z,7.77
2022-10-09T20:53:42.573Z,8.20
2022-10-09T20:56:11.106Z,7.60
2022-10-09T20:58:37.957Z,8.30
2022-10-09T21:01:06.221Z,7.57
2022-10-09T21:03:33.899Z,8.07
2022-10-09T21:06:07.644Z,8.17
2022-10-09T21:08:34.654Z,6.90
2022-10-09T21:11:03.686Z,8.60
2022-10-09T21:13:30.442Z,8.03
2022-10-09T21:15:57.378Z,8.40
2022-10-09T21:18:24.122Z,9.17
2022-10-09T21:20:50.946Z,8.07
2022-10-09T21:23:18.403Z,8.03
2022-10-09T21:25:49.650Z,7.37
2022-10-09T21:28:17.547Z,8.23
2022-10-09T21:30:44.341Z,8.33
2022-10-09T21:33:11.214Z,8.70
2022-10-09T21:35:46.070Z,8.00
2022-10-09T21:38:14.420Z,8.13
2022-10-09T21:40:41.354Z,7.43
2022-10-09T21:43:08.468Z,8.40
2022-10-09T21:45:35.620Z,7.87
2022-10-09T21:48:02.503Z,8.53
2022-10-09T21:50:29.286Z,8.90
2022-10-09T21:52:56.154Z,8.70
2022-10-09T21:55:22.936Z,8.93
2022-10-09T21:57:49.891Z,8.07
2022-10-09T22:00:17.021Z,7.97
2022-10-09T22:02:43.805Z,7.80
2022-10-09T22:05:10.931Z,7.77
2022-10-09T22:07:37.739Z,7.60
2022-10-09T22:10:05.146Z,7.40
2022-10-09T22:12:32.055Z,8.13
2022-10-09T22:14:58.901Z,8.97
2022-10-09T22:17:25.642Z,8.63
2022-10-09T22:19:52.507Z,8.30
2022-10-09T22:22:19.494Z,8.83
2022-10-09T22:24:46.260Z,7.97
2022-10-09T22:27:13.042Z,8.23
2022-10-09T22:29:39.964Z,7.83
2022-10-09T22:32:06.835Z,8.60
2022-10-09T22:34:33.619Z,8.70
2022-10-09T22:37:00.527Z,9.03
2022-10-09T22:39:27.412Z,9.23
2022-10-09T22:41:54.424Z,7.70
2022-10-09T22:44:21.194Z,8.37
2022-10-09T22:46:49.206Z,8.80
2022-10-09T22:49:16.324Z,8.67
2022-10-09T22:51:43.791Z,8.70
2022-10-09T22:54:11.546Z,7.97
2022-10-09T22:56:45.487Z,8.70
2022-10-09T22:59:14.817Z,8.20
2022-10-09T23:01:48.347Z,8.30
2022-10-09T23:04:16.109Z,8.77
2022-10-09T23:06:44.214Z,7.53
2022-10-09T23:09:12.322Z,8.70
2022-10-09T23:11:39.223Z,8.67
2022-10-09T23:14:06.829Z,8.40
2022-10-09T23:16:33.864Z,7.27
2022-10-09T23:19:06.153Z,8.13
2022-10-09T23:21:33.731Z,7.77
2022-10-09T23:24:00.543Z,8.80
2022-10-09T23:26:28.903Z,8.70
2022-10-09T23:28:57.704Z,8.40
2022-10-09T23:31:24.894Z,7.37
2022-10-09T23:33:51.698Z,8.00
2022-10-09T23:36:19.891Z,8.47
2022-10-09T23:38:46.896Z,7.90
2022-10-09T23:41:16.052Z,8.40
2022-10-09T23:43:44.568Z,7.97
2022-10-09T23:46:13.549Z,8.90
2022-10-09T23:48:40.464Z,8.87
2022-10-09T23:51:07.378Z,9.30
2022-10-09T23:53:34.199Z,9.70
2022-10-09T23:56:01.218Z,9.40
2022-10-09T23:58:27.966Z,8.97
